createdAt,value
2023-02-06T00:01:38.545Z,30.80
2023-02-06T00:04:07.081Z,32.40
2023-02-06T00:06:35.153Z,35.60
2023-02-06T00:09:03.630Z,31.30
2023-02-06T00:11:31.758Z,31.47
2023-02-06T00:14:01.361Z,32.17
2023-02-06T00:16:31.597Z,37.23
2023-02-06T00:19:00.999Z,31.27
2023-02-06T00:21:30.611Z,32.50
2023-02-06T00:24:01.036Z,32.70
2023-02-06T00:26:29.092Z,32.07
2023-02-06T00:28:57.088Z,36.27
2023-02-06T00:31:26.723Z,34.60
2023-02-06T00:33:54.838Z,30.93
2023-02-06T00:36:23.005Z,30.97
2023-02-06T00:38:51.045Z,32.33
2023-02-06T00:41:19.171Z,33.03
2023-02-06T00:43:47.511Z,36.13
2023-02-06T00:46:15.564Z,32.03
2023-02-06T00:48:45.094Z,31.10
2023-02-06T00:51:13.066Z,35.93
2023-02-06T00:53:41.110Z,35.97
2023-02-06T00:56:09.286Z,31.87
2023-02-06T00:58:37.455Z,31.03
2023-02-06T01:01:05.513Z,36.67
2023-02-06T01:03:34.486Z,32.70
2023-02-06T01:06:04.174Z,34.67
2023-02-06T01:08:35.212Z,31.67
2023-02-06T01:11:03.357Z,32.13
2023-02-06T01:13:31.712Z,31.47
2023-02-06T01:15:59.734Z,34.63
2023-02-06T01:18:27.889Z,33.43
2023-02-06T01:20:55.819Z,34.07
2023-02-06T01:23:26.065Z,36.03
2023-02-06T01:25:54.121Z,31.67
2023-02-06T01:28:21.975Z,30.67
2023-02-06T01:30:50.379Z,34.97
2023-02-06T01:33:18.504Z,34.60
2023-02-06T01:35:47.057Z,34.83
2023-02-06T01:38:15.108Z,33.93
2023-02-06T01:40:44.682Z,31.23
2023-02-06T01:43:18.916Z,39.00
2023-02-06T01:45:48.032Z,36.60
2023-02-06T01:48:20.129Z,37.47
2023-02-06T01:50:51.100Z,31.50
2023-02-06T01:53:20.066Z,31.97
2023-02-06T01:55:51.756Z,32.23
2023-02-06T01:58:27.564Z,31.17
2023-02-06T02:00:56.524Z,37.10
2023-02-06T02:03:24.902Z,31.70
2023-02-06T02:05:57.074Z,40.90
2023-02-06T02:08:28.858Z,34.47
2023-02-06T02:10:59.847Z,34.03
2023-02-06T02:13:29.062Z,31.53
2023-02-06T02:16:02.095Z,31.73
2023-02-06T02:18:50.012Z,32.70
2023-02-06T02:21:52.444Z,30.70
2023-02-06T02:24:26.643Z,31.67
2023-02-06T02:27:28.357Z,39.60
2023-02-06T02:30:25.962Z,31.13
2023-02-06T02:33:15.180Z,30.60
2023-02-06T02:35:52.891Z,31.40
2023-02-06T02:38:32.114Z,41.40
2023-02-06T02:41:08.294Z,35.93
2023-02-06T02:43:44.072Z,36.67
2023-02-06T02:46:20.902Z,30.83
2023-02-06T02:48:53.280Z,30.63
2023-02-06T02:51:23.455Z,32.83
2023-02-06T02:53:51.522Z,33.27
2023-02-06T02:56:21.869Z,30.83
2023-02-06T02:58:54.089Z,30.87
2023-02-06T03:01:27.148Z,32.43
2023-02-06T03:03:56.876Z,30.97
2023-02-06T03:06:42.066Z,30.90
2023-02-06T03:09:17.454Z,31.07
2023-02-06T03:11:55.283Z,32.43
2023-02-06T03:14:29.492Z,32.33
2023-02-06T03:17:03.885Z,31.20
2023-02-06T03:19:36.476Z,30.83
2023-02-06T03:22:06.907Z,31.17
2023-02-06T03:24:40.433Z,31.47
2023-02-06T03:27:11.492Z,33.30
2023-02-06T03:29:40.649Z,32.37
2023-02-06T03:32:13.602Z,31.60
2023-02-06T03:34:47.569Z,30.90
2023-02-06T03:37:17.449Z,32.63
2023-02-06T03:39:45.612Z,30.47
2023-02-06T03:42:16.089Z,34.50
2023-02-06T03:44:48.936Z,32.00
2023-02-06T03:47:19.030Z,34.00
2023-02-06T03:49:49.211Z,31.77
2023-02-06T03:52:22.866Z,34.47
2023-02-06T03:54:54.756Z,32.30
2023-02-06T03:57:24.269Z,32.57
2023-02-06T03:59:52.710Z,32.90
2023-02-06T04:02:22.597Z,31.23
2023-02-06T04:04:50.702Z,31.57
2023-02-06T04:07:24.522Z,37.10
2023-02-06T04:09:52.844Z,31.60
2023-02-06T04:12:21.475Z,33.33
2023-02-06T04:14:50.160Z,32.37
2023-02-06T04:17:36.081Z,31.93
2023-02-06T04:20:05.641Z,31.43
2023-02-06T04:22:35.249Z,33.43
2023-02-06T04:25:03.278Z,32.03
2023-02-06T04:27:31.645Z,30.60
2023-02-06T04:30:00.166Z,31.73
2023-02-06T04:32:28.341Z,30.57
2023-02-06T04:34:56.403Z,31.07
2023-02-06T04:37:24.554Z,30.63
2023-02-06T04:39:54.187Z,31.97
2023-02-06T04:42:22.284Z,30.77
2023-02-06T04:44:50.472Z,32.07
2023-02-06T04:47:18.894Z,32.43
2023-02-06T04:49:47.235Z,31.30
2023-02-06T04:52:15.316Z,32.30
2023-02-06T04:54:43.467Z,31.23
2023-02-06T04:57:15.812Z,36.83
2023-02-06T04:59:43.866Z,32.30
2023-02-06T05:02:12.303Z,31.27
2023-02-06T05:04:40.772Z,32.10
2023-02-06T05:07:09.331Z,34.57
2023-02-06T05:09:37.403Z,32.73
2023-02-06T05:12:05.842Z,32.23
2023-02-06T05:14:35.261Z,31.10
2023-02-06T05:17:03.234Z,34.57
2023-02-06T05:19:31.641Z,31.53
2023-02-06T05:21:59.473Z,32.80
2023-02-06T05:24:27.533Z,35.83
2023-02-06T05:26:57.914Z,30.47
2023-02-06T05:29:26.389Z,32.03
2023-02-06T05:31:55.970Z,32.00
2023-02-06T05:34:23.927Z,34.00
2023-02-06T05:36:51.829Z,32.27
2023-02-06T05:39:22.414Z,30.37
2023-02-06T05:41:50.875Z,34.33
2023-02-06T05:44:18.902Z,31.63
2023-02-06T05:46:48.402Z,29.80
2023-02-06T05:49:18.397Z,29.20
2023-02-06T05:51:46.534Z,28.53
2023-02-06T05:54:16.970Z,33.40
2023-02-06T05:56:45.249Z,30.97
2023-02-06T05:59:13.412Z,29.17
2023-02-06T06:01:41.406Z,38.93
2023-02-06T06:04:09.720Z,29.13
2023-02-06T06:06:39.234Z,29.40
2023-02-06T06:09:07.162Z,30.60
2023-02-06T06:11:35.221Z,37.77
2023-02-06T06:14:03.550Z,30.97
2023-02-06T06:16:32.497Z,31.73
2023-02-06T06:19:01.811Z,27.03
2023-02-06T06:21:30.537Z,29.33
2023-02-06T06:24:00.138Z,28.07
2023-02-06T06:26:28.699Z,28.47
2023-02-06T06:28:57.677Z,29.07
2023-02-06T06:31:25.911Z,27.40
2023-02-06T06:33:54.332Z,39.23
2023-02-06T06:36:22.739Z,34.57
2023-02-06T06:38:50.691Z,32.57
2023-02-06T06:41:20.476Z,27.97
2023-02-06T06:43:51.229Z,33.97
2023-02-06T06:46:19.910Z,32.23
2023-02-06T06:48:47.957Z,27.17
2023-02-06T06:51:16.187Z,28.67
2023-02-06T06:53:44.218Z,32.70
2023-02-06T06:56:15.133Z,28.77
2023-02-06T06:58:44.722Z,30.10
2023-02-06T07:01:12.844Z,28.20
2023-02-06T07:03:44.251Z,32.63
2023-02-06T07:06:12.905Z,30.13
2023-02-06T07:08:42.041Z,27.43
2023-02-06T07:11:10.582Z,33.20
2023-02-06T07:13:39.292Z,33.17
2023-02-06T07:16:09.438Z,26.20
2023-02-06T07:18:41.294Z,34.10
2023-02-06T07:21:09.876Z,30.10
2023-02-06T07:23:38.362Z,28.53
2023-02-06T07:26:07.089Z,34.20
2023-02-06T07:28:35.994Z,30.93
2023-02-06T07:31:05.707Z,29.20
2023-02-06T07:33:36.028Z,27.43
2023-02-06T07:36:04.448Z,26.07
2023-02-06T07:38:33.081Z,32.40
2023-02-06T07:41:04.291Z,26.43
2023-02-06T07:43:33.167Z,36.27
2023-02-06T07:46:01.916Z,26.07
2023-02-06T07:48:30.870Z,28.47
2023-02-06T07:51:06.320Z,30.37
2023-02-06T07:53:34.691Z,28.80
2023-02-06T07:56:03.019Z,27.37
2023-02-06T07:58:34.101Z,30.20
2023-02-06T08:01:05.126Z,32.33
2023-02-06T08:03:33.849Z,31.07
2023-02-06T08:06:09.271Z,30.67
2023-02-06T08:08:38.435Z,26.07
2023-02-06T08:11:07.928Z,28.77
2023-02-06T08:13:36.248Z,26.43
2023-02-06T08:16:09.912Z,27.00
2023-02-06T08:18:38.595Z,28.47
2023-02-06T08:21:11.289Z,27.43
2023-02-06T08:23:39.615Z,29.37
2023-02-06T08:26:13.950Z,25.90
2023-02-06T08:28:42.731Z,28.17
2023-02-06T08:31:13.098Z,26.90
2023-02-06T08:33:41.692Z,28.53
2023-02-06T08:36:12.622Z,27.33
2023-02-06T08:38:41.458Z,28.70
2023-02-06T08:41:18.538Z,34.67
2023-02-06T08:43:46.985Z,32.93
2023-02-06T08:46:15.883Z,27.03
2023-02-06T08:48:44.049Z,31.73
2023-02-06T08:51:13.712Z,28.03
2023-02-06T08:53:41.606Z,33.53
2023-02-06T08:56:12.663Z,30.13
2023-02-06T08:58:50.057Z,29.10
2023-02-06T09:01:18.088Z,32.63
2023-02-06T09:03:47.083Z,32.03
2023-02-06T09:06:17.628Z,29.80
2023-02-06T09:08:45.921Z,31.30
2023-02-06T09:11:18.219Z,33.73
2023-02-06T09:13:49.340Z,33.07
2023-02-06T09:16:19.318Z,27.90
2023-02-06T09:18:49.799Z,26.60
2023-02-06T09:21:23.284Z,29.73
2023-02-06T09:23:55.578Z,27.03
2023-02-06T09:26:25.755Z,31.00
2023-02-06T09:28:54.255Z,34.43
2023-02-06T09:31:22.587Z,32.27
2023-02-06T09:33:50.881Z,30.33
2023-02-06T09:36:21.700Z,30.17
2023-02-06T09:38:51.449Z,30.03
2023-02-06T09:41:25.544Z,30.30
2023-02-06T09:43:57.497Z,35.20
2023-02-06T09:46:34.397Z,35.20
2023-02-06T09:49:08.373Z,31.93
2023-02-06T09:51:51.622Z,33.43
2023-02-06T09:54:29.435Z,32.47
2023-02-06T09:57:03.881Z,29.80
2023-02-06T09:59:36.613Z,29.47
2023-02-06T10:02:28.084Z,27.13
2023-02-06T10:05:02.353Z,27.67
2023-02-06T10:07:51.111Z,34.63
2023-02-06T10:10:26.126Z,29.87
2023-02-06T10:13:01.426Z,27.53
2023-02-06T10:15:35.040Z,28.20
2023-02-06T10:18:10.184Z,27.33
2023-02-06T10:20:44.582Z,30.50
2023-02-06T10:23:30.502Z,32.53
2023-02-06T10:26:07.048Z,25.90
2023-02-06T10:28:36.776Z,31.67
2023-02-06T10:31:33.527Z,26.63
2023-02-06T10:34:27.474Z,28.33
2023-02-06T10:37:04.484Z,31.40
2023-02-06T10:39:59.002Z,27.27
2023-02-06T10:42:43.218Z,25.83
2023-02-06T10:45:20.284Z,25.20
2023-02-06T10:47:57.122Z,29.23
2023-02-06T10:50:29.448Z,26.27
2023-02-06T10:53:00.797Z,29.60
2023-02-06T10:55:49.379Z,28.20
2023-02-06T10:58:21.436Z,31.07
2023-02-06T11:00:51.224Z,26.17
2023-02-06T11:30:34.905Z,22.40
2023-02-06T11:33:06.281Z,23.25
2023-02-06T11:35:39.660Z,22.27
2023-02-06T11:38:15.284Z,24.23
2023-02-06T11:40:44.542Z,23.67
2023-02-06T11:43:22.539Z,27.35
2023-02-06T11:46:07.349Z,26.58
2023-02-06T11:48:39.158Z,26.38
2023-02-06T11:51:08.586Z,24.05
2023-02-06T11:53:37.375Z,24.90
2023-02-06T11:56:15.952Z,23.50
2023-02-06T11:58:44.209Z,23.10
2023-02-06T12:01:21.107Z,24.23
2023-02-06T12:03:57.825Z,25.90
2023-02-06T12:06:31.797Z,25.13
2023-02-06T12:09:02.635Z,25.98
2023-02-06T12:11:34.906Z,27.42
2023-02-06T12:14:11.375Z,25.27
2023-02-06T12:16:45.533Z,24.77
2023-02-06T12:19:25.301Z,26.10
2023-02-06T12:21:58.060Z,25.48
2023-02-06T12:24:31.341Z,25.30
2023-02-06T12:27:02.869Z,26.08
2023-02-06T12:29:36.319Z,25.90
2023-02-06T12:32:14.957Z,25.13
2023-02-06T12:34:53.909Z,27.20
2023-02-06T12:37:37.870Z,27.33
2023-02-06T12:40:14.526Z,28.10
2023-02-06T12:42:48.777Z,28.23
2023-02-06T12:45:36.466Z,26.33
2023-02-06T12:48:16.249Z,28.80
2023-02-06T12:50:49.370Z,29.60
2023-02-06T12:53:21.421Z,28.70
2023-02-06T12:55:54.746Z,27.67
2023-02-06T12:58:28.446Z,26.40
2023-02-06T13:01:27.620Z,27.35
2023-02-06T13:04:04.507Z,27.80
2023-02-06T13:06:43.980Z,27.45
2023-02-06T13:09:21.554Z,27.75
2023-02-06T13:11:49.817Z,27.67
2023-02-06T13:14:21.085Z,27.17
2023-02-06T13:16:59.383Z,26.52
2023-02-06T13:19:50.758Z,26.80
2023-02-06T13:22:49.492Z,26.02
2023-02-06T13:25:48.997Z,26.17
2023-02-06T13:28:57.223Z,27.02
2023-02-06T13:31:31.105Z,23.15
2023-02-06T13:34:15.389Z,21.85
2023-02-06T13:36:53.860Z,19.73
2023-02-06T13:39:31.877Z,24.10
2023-02-06T13:42:24.931Z,22.48
2023-02-06T13:44:56.342Z,22.70
2023-02-06T13:48:13.618Z,22.80
2023-02-06T13:51:05.736Z,23.17
2023-02-06T13:54:04.490Z,17.52
2023-02-06T13:56:50.552Z,18.90
2023-02-06T13:59:22.836Z,19.00
2023-02-06T14:01:51.150Z,16.58
2023-02-06T14:04:24.893Z,18.88
2023-02-06T14:07:08.725Z,17.40
2023-02-06T14:09:51.203Z,17.02
2023-02-06T14:12:35.608Z,17.02
2023-02-06T14:15:17.962Z,12.90
2023-02-06T14:18:20.886Z,18.83
2023-02-06T14:20:56.424Z,12.63
2023-02-06T14:23:33.988Z,17.95
2023-02-06T14:26:16.461Z,17.52
2023-02-06T14:28:52.887Z,11.45
2023-02-06T14:31:45.039Z,15.57
2023-02-06T14:34:38.613Z,14.65
2023-02-06T14:37:42.934Z,14.13
2023-02-06T14:40:20.117Z,12.55
2023-02-06T14:42:51.109Z,12.57
2023-02-06T14:45:29.351Z,11.10
2023-02-06T14:48:02.075Z,11.43
2023-02-06T14:50:33.070Z,12.73
2023-02-06T14:53:09.710Z,13.57
2023-02-06T14:55:40.402Z,13.75
2023-02-06T14:58:20.756Z,11.60
2023-02-06T15:00:48.936Z,13.48
2023-02-06T15:03:19.630Z,10.65
2023-02-06T15:05:48.319Z,10.60
2023-02-06T15:08:21.928Z,12.57
2023-02-06T15:10:58.738Z,15.95
2023-02-06T15:13:35.046Z,14.77
2023-02-06T15:16:05.043Z,15.90
2023-02-06T15:18:34.503Z,14.52
2023-02-06T15:21:05.081Z,15.48
2023-02-06T15:23:44.602Z,9.40
2023-02-06T15:26:23.558Z,15.48
2023-02-06T15:28:59.055Z,11.18
2023-02-06T15:31:30.667Z,12.43
2023-02-06T15:34:01.013Z,17.33
2023-02-06T15:36:33.165Z,13.20
2023-02-06T15:39:02.498Z,10.20
2023-02-06T15:41:31.695Z,14.00
2023-02-06T15:44:04.993Z,14.75
2023-02-06T15:46:33.906Z,16.98
2023-02-06T15:49:01.870Z,19.42
2023-02-06T15:51:31.895Z,15.25
2023-02-06T15:54:09.828Z,17.25
2023-02-06T15:56:41.209Z,17.60
2023-02-06T15:59:20.811Z,17.35
2023-02-06T16:01:50.315Z,9.13
2023-02-06T16:04:24.319Z,12.18
2023-02-06T16:07:03.296Z,15.75
2023-02-06T16:09:33.351Z,10.55
2023-02-06T16:12:01.629Z,12.38
2023-02-06T16:14:36.108Z,10.75
2023-02-06T16:17:06.678Z,12.77
2023-02-06T16:19:42.568Z,7.03
2023-02-06T16:22:28.886Z,10.50
2023-02-06T16:25:12.843Z,15.60
2023-02-06T16:27:45.673Z,10.20
2023-02-06T16:30:28.438Z,10.15
2023-02-06T16:32:58.568Z,14.40
2023-02-06T16:35:27.729Z,11.77
2023-02-06T16:37:55.821Z,10.27
2023-02-06T16:40:26.125Z,15.27
2023-02-06T16:42:54.709Z,13.32
2023-02-06T16:45:27.154Z,11.77
2023-02-06T16:47:55.666Z,11.48
2023-02-06T16:50:23.992Z,13.45
2023-02-06T16:52:54.421Z,13.18
2023-02-06T16:55:24.768Z,11.93
2023-02-06T16:57:55.176Z,14.55
2023-02-06T17:00:28.946Z,11.07
2023-02-06T17:02:58.835Z,13.13
2023-02-06T17:05:28.173Z,11.90
2023-02-06T17:07:56.408Z,14.57
2023-02-06T17:10:26.955Z,12.07
2023-02-06T17:12:55.772Z,12.73
2023-02-06T17:15:25.193Z,13.82
2023-02-06T17:17:54.779Z,12.38
2023-02-06T17:20:34.504Z,12.10
2023-02-06T17:23:02.751Z,14.05
2023-02-06T17:25:31.721Z,12.47
2023-02-06T17:28:00.247Z,18.13
2023-02-06T17:30:30.050Z,13.65
2023-02-06T17:32:58.141Z,11.43
2023-02-06T17:35:26.447Z,17.13
2023-02-06T17:37:54.539Z,19.70
2023-02-06T17:40:26.214Z,17.77
2023-02-06T17:42:54.590Z,16.97
2023-02-06T17:45:22.676Z,21.43
2023-02-06T17:47:52.362Z,18.80
2023-02-06T17:50:22.583Z,15.73
2023-02-06T17:52:52.677Z,18.73
2023-02-06T17:55:20.758Z,18.03
2023-02-06T17:57:48.751Z,21.83
2023-02-06T18:00:19.035Z,19.33
2023-02-06T18:02:47.510Z,19.97
2023-02-06T18:05:17.338Z,24.90
2023-02-06T18:07:45.451Z,21.50
2023-02-06T18:10:13.855Z,21.23
2023-02-06T18:12:41.731Z,21.43
2023-02-06T18:15:12.890Z,21.50
2023-02-06T18:17:41.359Z,22.63
2023-02-06T18:20:11.483Z,28.13
2023-02-06T18:22:42.272Z,23.30
2023-02-06T18:25:13.083Z,26.03
2023-02-06T18:27:42.771Z,25.77
2023-02-06T18:30:12.179Z,28.50
2023-02-06T18:32:40.667Z,24.53
2023-02-06T18:35:09.565Z,25.03
2023-02-06T18:37:38.316Z,24.73
2023-02-06T18:40:11.796Z,27.07
2023-02-06T18:42:50.993Z,28.03
2023-02-06T18:45:19.511Z,26.33
2023-02-06T18:47:47.643Z,25.40
2023-02-06T18:50:16.173Z,25.37
2023-02-06T18:52:44.160Z,25.13
2023-02-06T18:55:13.518Z,26.27
2023-02-06T18:57:41.971Z,26.50
2023-02-06T19:00:13.662Z,27.53
2023-02-06T19:02:41.739Z,29.70
2023-02-06T19:05:15.765Z,31.10
2023-02-06T19:07:44.729Z,30.43
2023-02-06T19:10:16.231Z,29.97
2023-02-06T19:12:44.376Z,31.80
2023-02-06T19:15:12.805Z,31.33
2023-02-06T19:17:40.966Z,30.17
2023-02-06T19:20:10.451Z,29.43
2023-02-06T19:22:39.714Z,29.43
2023-02-06T19:25:13.333Z,30.47
2023-02-06T19:27:43.809Z,30.53
2023-02-06T19:30:13.358Z,32.97
2023-02-06T19:32:41.479Z,32.70
2023-02-06T19:35:11.906Z,35.57
2023-02-06T19:37:40.285Z,32.83
2023-02-06T19:40:09.187Z,34.43
2023-02-06T19:42:37.093Z,33.40
2023-02-06T19:45:07.533Z,33.10
2023-02-06T19:47:36.292Z,34.53
2023-02-06T19:50:05.083Z,35.63
2023-02-06T19:52:35.159Z,42.13
2023-02-06T19:55:03.736Z,32.27
2023-02-06T19:57:31.789Z,31.57
2023-02-06T20:00:00.044Z,33.20
2023-02-06T20:02:29.636Z,39.63
2023-02-06T20:04:57.863Z,32.77
2023-02-06T20:07:26.064Z,31.87
2023-02-06T20:09:55.844Z,32.13
2023-02-06T20:12:23.774Z,31.90
2023-02-06T20:14:51.943Z,33.63
2023-02-06T20:17:20.047Z,32.70
2023-02-06T20:19:49.788Z,32.43
2023-02-06T20:22:17.840Z,32.80
2023-02-06T20:24:46.582Z,31.97
2023-02-06T20:27:15.151Z,33.37
2023-02-06T20:29:43.460Z,31.93
2023-02-06T20:32:12.163Z,33.17
2023-02-06T20:34:40.085Z,32.60
2023-02-06T20:37:09.421Z,31.13
2023-02-06T20:39:37.746Z,32.07
2023-02-06T20:42:06.142Z,31.17
2023-02-06T20:44:34.288Z,31.60
2023-02-06T20:47:02.408Z,45.63
2023-02-06T20:49:31.983Z,53.30
2023-02-06T20:52:03.364Z,42.30
2023-02-06T20:54:32.989Z,36.77
2023-02-06T20:57:01.294Z,32.57
2023-02-06T20:59:29.426Z,34.50
2023-02-06T21:01:58.265Z,33.13
2023-02-06T21:04:26.862Z,36.43
2023-02-06T21:06:55.652Z,33.80
2023-02-06T21:09:23.821Z,32.87
2023-02-06T21:11:53.253Z,31.17
2023-02-06T21:14:22.110Z,30.90
2023-02-06T21:16:50.873Z,34.47
2023-02-06T21:19:21.140Z,33.87
2023-02-06T21:21:49.908Z,36.27
2023-02-06T21:24:19.085Z,33.70
2023-02-06T21:26:47.128Z,32.33
2023-02-06T21:29:17.017Z,35.07
2023-02-06T21:31:46.274Z,32.67
2023-02-06T21:34:16.710Z,32.10
2023-02-06T21:36:45.013Z,34.43
2023-02-06T21:39:17.120Z,32.67
2023-02-06T21:41:45.223Z,32.03
2023-02-06T21:44:13.439Z,38.67
2023-02-06T21:46:42.925Z,34.23
2023-02-06T21:49:11.621Z,33.37
2023-02-06T21:51:39.898Z,33.40
2023-02-06T21:54:07.995Z,34.13
2023-02-06T21:56:38.309Z,32.47
2023-02-06T21:59:07.116Z,32.67
2023-02-06T22:01:35.520Z,31.50
2023-02-06T22:04:20.931Z,32.47
2023-02-06T22:06:49.146Z,33.10
2023-02-06T22:09:20.172Z,33.83
2023-02-06T22:11:48.619Z,33.10
2023-02-06T22:14:18.390Z,33.17
2023-02-06T22:16:47.713Z,33.27
2023-02-06T22:19:17.825Z,33.00
2023-02-06T22:21:46.153Z,33.93
2023-02-06T22:24:14.366Z,38.57
2023-02-06T22:26:43.118Z,33.00
2023-02-06T22:29:13.668Z,35.00
2023-02-06T22:31:43.317Z,34.00
2023-02-06T22:34:17.906Z,33.60
2023-02-06T22:36:46.143Z,34.30
2023-02-06T22:39:15.443Z,33.67
2023-02-06T22:41:45.135Z,33.00
2023-02-06T22:44:16.489Z,32.47
2023-02-06T22:46:46.161Z,37.10
2023-02-06T22:49:14.324Z,37.00
2023-02-06T22:51:44.420Z,33.33
2023-02-06T22:54:14.074Z,31.80
2023-02-06T22:56:43.074Z,31.97
2023-02-06T22:59:13.036Z,31.83
2023-02-06T23:01:43.363Z,31.90
2023-02-06T23:04:13.971Z,32.77
2023-02-06T23:06:44.367Z,34.43
2023-02-06T23:09:15.244Z,33.87
2023-02-06T23:11:43.899Z,34.13
2023-02-06T23:14:13.598Z,33.87
2023-02-06T23:16:42.085Z,37.17
2023-02-06T23:19:11.595Z,34.10
2023-02-06T23:21:41.686Z,35.07
2023-02-06T23:24:12.298Z,32.73
2023-02-06T23:26:42.692Z,32.83
2023-02-06T23:29:15.898Z,33.20
2023-02-06T23:31:44.935Z,34.73
2023-02-06T23:34:13.145Z,31.60
2023-02-06T23:36:41.495Z,31.87
2023-02-06T23:39:12.020Z,31.37
2023-02-06T23:41:40.312Z,31.20
2023-02-06T23:44:09.313Z,31.90
2023-02-06T23:46:39.183Z,32.77
2023-02-06T23:49:07.815Z,31.20
2023-02-06T23:51:36.597Z,32.10
2023-02-06T23:54:05.357Z,31.93
2023-02-06T23:56:35.330Z,30.60
2023-02-06T23:59:05.133Z,30.73
